This is the latest recevied weather packets stored in our database for station/object 9M8ZAL-13. If no packets are shown the sender has not sent any weather packets the latest 1 day(s).
| Time | Temp. | Humidity | Pressure | Rain* | Wind** | Luminosity | Snow |
|---|---|---|---|---|---|---|---|
| 1778063028 | 32.22° C | - | 1005.8 hPa | - | - | 1000 W/m² | - |
| 1778060028 | 33.33° C | - | 1004.8 hPa | - | - | 1003 W/m² | - |
| 1778059428 | 33.89° C | - | 1004.5 hPa | - | - | 1003 W/m² | - |
| 1778058228 | 33.89° C | - | 1004.4 hPa | - | - | 1002 W/m² | - |
| 1778057628 | 34.44° C | - | 1004.4 hPa | - | - | 1002 W/m² | - |
| 1778057028 | 33.89° C | - | 1004.6 hPa | - | - | 1003 W/m² | - |
| 1778056428 | 33.89° C | - | 1004.6 hPa | - | - | 1004 W/m² | - |
| 1778055828 | 33.33° C | - | 1004.5 hPa | - | - | 1004 W/m² | - |
| 1778055228 | 33.33° C | - | 1004.6 hPa | - | - | 1004 W/m² | - |
| 1778054028 | 34.44° C | - | 1004.4 hPa | - | - | 1005 W/m² | - |
| 1778053428 | 33.89° C | - | 1004.7 hPa | - | - | 1004 W/m² | - |
| 1778050428 | 34.44° C | - | 1004.8 hPa | - | - | 1004 W/m² | - |
| 1778049227 | 34.44° C | - | 1004.9 hPa | - | - | 1005 W/m² | - |
| 1778048042 | 34.44° C | - | 1005.3 hPa | - | - | 1003 W/m² | - |
| 1778046228 | 34.44° C | - | 1005.8 hPa | - | - | 1005 W/m² | - |
| 1778045627 | 34.44° C | - | 1005.7 hPa | - | - | 1005 W/m² | - |
| 1778043827 | 33.89° C | - | 1006.5 hPa | - | - | 1005 W/m² | - |
| 1778043227 | 33.33° C | - | 1006.8 hPa | - | - | 1005 W/m² | - |
| 1778042027 | 33.33° C | - | 1007.2 hPa | - | - | 1005 W/m² | - |
| 1778040827 | 32.78° C | - | 1007.5 hPa | - | - | 1005 W/m² | - |
| 1778040227 | 32.78° C | - | 1007.6 hPa | - | - | 1005 W/m² | - |
| 1778039627 | 32.78° C | - | 1007.8 hPa | - | - | 1005 W/m² | - |
| 1778039027 | 32.22° C | - | 1007.8 hPa | - | - | 1005 W/m² | - |
| 1778038427 | 32.22° C | - | 1008 hPa | - | - | 1005 W/m² | - |
| 1778037827 | 32.22° C | - | 1008.1 hPa | - | - | 1006 W/m² | - |
* Rain since midnight (hover to see other rain measurements)
** Current wind speed in m/s (hover to see current wind gust speed)